sensor_id;sensor_type;location;lat;lon;timestamp;pressure;altitude;pressure_sealevel;temperature;humidity
65997;BME280;52765;52.258;21.052;2023-02-11T00:00:13;101935.88;;;1.89;100.00
65997;BME280;52765;52.258;21.052;2023-02-11T00:02:40;101922.28;;;1.74;100.00
65997;BME280;52765;52.258;21.052;2023-02-11T00:05:06;101936.13;;;1.82;100.00
65997;BME280;52765;52.258;21.052;2023-02-11T00:07:32;101927.41;;;1.79;100.00
65997;BME280;52765;52.258;21.052;2023-02-11T00:09:58;101936.34;;;1.76;100.00
65997;BME280;52765;52.258;21.052;2023-02-11T00:12:25;101916.78;;;1.79;100.00
65997;BME280;52765;52.258;21.052;2023-02-11T00:14:50;101909.59;;;1.81;100.00
65997;BME280;52765;52.258;21.052;2023-02-11T00:17:16;101901.50;;;1.84;100.00
65997;BME280;52765;52.258;21.052;2023-02-11T00:19:41;101912.94;;;1.86;100.00
65997;BME280;52765;52.258;21.052;2023-02-11T00:22:07;101898.84;;;1.84;100.00
65997;BME280;52765;52.258;21.052;2023-02-11T00:24:32;101899.59;;;1.88;100.00
65997;BME280;52765;52.258;21.052;2023-02-11T00:26:58;101893.25;;;1.92;100.00
65997;BME280;52765;52.258;21.052;2023-02-11T00:29:24;101893.03;;;1.96;100.00
65997;BME280;52765;52.258;21.052;2023-02-11T00:31:49;101900.88;;;1.99;100.00
65997;BME280;52765;52.258;21.052;2023-02-11T00:34:15;101893.69;;;2.01;100.00
65997;BME280;52765;52.258;21.052;2023-02-11T00:36:41;101881.00;;;2.08;100.00
65997;BME280;52765;52.258;21.052;2023-02-11T00:39:07;101874.09;;;2.04;100.00
65997;BME280;52765;52.258;21.052;2023-02-11T00:41:32;101867.88;;;2.05;99.90
65997;BME280;52765;52.258;21.052;2023-02-11T00:43:59;101868.53;;;2.10;99.45
65997;BME280;52765;52.258;21.052;2023-02-11T00:46:24;101851.88;;;2.07;98.43
65997;BME280;52765;52.258;21.052;2023-02-11T00:48:50;101848.84;;;2.14;98.82
65997;BME280;52765;52.258;21.052;2023-02-11T00:51:17;101831.03;;;2.16;98.65
65997;BME280;52765;52.258;21.052;2023-02-11T00:53:43;101811.69;;;2.13;97.62
65997;BME280;52765;52.258;21.052;2023-02-11T00:56:08;101816.50;;;2.25;98.27
65997;BME280;52765;52.258;21.052;2023-02-11T00:58:34;101805.72;;;2.28;97.17
65997;BME280;52765;52.258;21.052;2023-02-11T01:01:00;101816.88;;;2.36;97.45
65997;BME280;52765;52.258;21.052;2023-02-11T01:03:26;101798.25;;;2.36;96.39
65997;BME280;52765;52.258;21.052;2023-02-11T01:05:52;101795.44;;;2.39;96.49
65997;BME280;52765;52.258;21.052;2023-02-11T01:08:18;101794.41;;;2.44;95.92
65997;BME280;52765;52.258;21.052;2023-02-11T01:10:44;101781.81;;;2.47;95.78
65997;BME280;52765;52.258;21.052;2023-02-11T01:13:09;101776.38;;;2.50;95.77
65997;BME280;52765;52.258;21.052;2023-02-11T01:15:35;101778.06;;;2.51;95.40
65997;BME280;52765;52.258;21.052;2023-02-11T01:18:01;101760.47;;;2.49;95.90
65997;BME280;52765;52.258;21.052;2023-02-11T01:20:27;101750.34;;;2.57;95.28
65997;BME280;52765;52.258;21.052;2023-02-11T01:22:53;101754.72;;;2.58;94.66
65997;BME280;52765;52.258;21.052;2023-02-11T01:25:19;101732.78;;;2.53;95.94
65997;BME280;52765;52.258;21.052;2023-02-11T01:27:44;101726.75;;;2.49;95.44
65997;BME280;52765;52.258;21.052;2023-02-11T01:30:12;101716.31;;;2.45;95.02
65997;BME280;52765;52.258;21.052;2023-02-11T01:32:38;101720.00;;;2.42;95.51
65997;BME280;52765;52.258;21.052;2023-02-11T01:35:04;101710.28;;;2.41;96.34
65997;BME280;52765;52.258;21.052;2023-02-11T01:37:32;101717.81;;;2.31;97.01
65997;BME280;52765;52.258;21.052;2023-02-11T01:39:57;101736.50;;;2.30;96.07
65997;BME280;52765;52.258;21.052;2023-02-11T01:42:24;101719.88;;;2.25;96.28
65997;BME280;52765;52.258;21.052;2023-02-11T01:44:52;101724.09;;;2.30;95.86
65997;BME280;52765;52.258;21.052;2023-02-11T01:47:19;101737.91;;;2.38;96.45
65997;BME280;52765;52.258;21.052;2023-02-11T01:49:49;101742.72;;;2.49;95.40
65997;BME280;52765;52.258;21.052;2023-02-11T01:52:21;101745.09;;;2.55;95.25
65997;BME280;52765;52.258;21.052;2023-02-11T01:55:08;101726.84;;;2.67;95.04
65997;BME280;52765;52.258;21.052;2023-02-11T01:57:54;101725.88;;;2.68;94.01
65997;BME280;52765;52.258;21.052;2023-02-11T02:00:24;101703.88;;;2.64;94.70
65997;BME280;52765;52.258;21.052;2023-02-11T02:03:05;101689.66;;;2.65;93.75
65997;BME280;52765;52.258;21.052;2023-02-11T02:05:56;101697.72;;;2.64;93.24
65997;BME280;52765;52.258;21.052;2023-02-11T02:11:03;101673.19;;;2.57;94.64
65997;BME280;52765;52.258;21.052;2023-02-11T02:13:31;101664.50;;;2.53;94.81
65997;BME280;52765;52.258;21.052;2023-02-11T02:16:05;101650.25;;;2.54;95.25
65997;BME280;52765;52.258;21.052;2023-02-11T02:18:55;101647.97;;;2.47;94.63
65997;BME280;52765;52.258;21.052;2023-02-11T02:30:33;101648.03;;;2.45;95.15
65997;BME280;52765;52.258;21.052;2023-02-11T02:35:47;101635.53;;;2.47;94.73
65997;BME280;52765;52.258;21.052;2023-02-11T02:40:44;101627.41;;;2.50;94.39
65997;BME280;52765;52.258;21.052;2023-02-11T02:43:12;101598.63;;;2.39;94.41
65997;BME280;52765;52.258;21.052;2023-02-11T02:45:39;101604.78;;;2.42;95.04
65997;BME280;52765;52.258;21.052;2023-02-11T02:48:05;101603.88;;;2.41;94.65
65997;BME280;52765;52.258;21.052;2023-02-11T02:50:34;101610.00;;;2.43;94.49
65997;BME280;52765;52.258;21.052;2023-02-11T02:53:30;101602.13;;;2.42;94.70
65997;BME280;52765;52.258;21.052;2023-02-11T02:56:22;101595.69;;;2.46;94.98
65997;BME280;52765;52.258;21.052;2023-02-11T02:59:12;101596.69;;;2.43;94.40
65997;BME280;52765;52.258;21.052;2023-02-11T03:01:56;101600.03;;;2.48;93.92
65997;BME280;52765;52.258;21.052;2023-02-11T03:04:39;101597.91;;;2.55;93.65
65997;BME280;52765;52.258;21.052;2023-02-11T03:15:56;101575.34;;;2.45;93.94
65997;BME280;52765;52.258;21.052;2023-02-11T03:18:26;101576.84;;;2.50;94.04
65997;BME280;52765;52.258;21.052;2023-02-11T03:20:53;101568.66;;;2.55;93.57
65997;BME280;52765;52.258;21.052;2023-02-11T03:23:39;101565.19;;;2.53;92.78
65997;BME280;52765;52.258;21.052;2023-02-11T03:26:28;101557.34;;;2.50;93.52
65997;BME280;52765;52.258;21.052;2023-02-11T03:29:05;101565.13;;;2.54;92.98
65997;BME280;52765;52.258;21.052;2023-02-11T03:31:39;101550.13;;;2.53;92.93
65997;BME280;52765;52.258;21.052;2023-02-11T03:34:12;101546.28;;;2.59;92.07
65997;BME280;52765;52.258;21.052;2023-02-11T03:36:58;101540.81;;;2.62;92.24
65997;BME280;52765;52.258;21.052;2023-02-11T03:39:31;101529.31;;;2.62;91.21
65997;BME280;52765;52.258;21.052;2023-02-11T03:41:58;101537.22;;;2.63;90.57
65997;BME280;52765;52.258;21.052;2023-02-11T03:44:30;101539.00;;;2.63;91.95
65997;BME280;52765;52.258;21.052;2023-02-11T03:46:57;101526.25;;;2.52;90.77
65997;BME280;52765;52.258;21.052;2023-02-11T03:49:25;101525.63;;;2.47;91.07
65997;BME280;52765;52.258;21.052;2023-02-11T03:51:52;101520.44;;;2.44;92.05
65997;BME280;52765;52.258;21.052;2023-02-11T03:54:25;101509.41;;;2.51;91.02
65997;BME280;52765;52.258;21.052;2023-02-11T03:56:54;101513.03;;;2.50;90.53
65997;BME280;52765;52.258;21.052;2023-02-11T03:59:20;101509.19;;;2.56;90.67
65997;BME280;52765;52.258;21.052;2023-02-11T04:01:46;101506.53;;;2.56;89.93
65997;BME280;52765;52.258;21.052;2023-02-11T04:04:12;101488.06;;;2.53;89.97
65997;BME280;52765;52.258;21.052;2023-02-11T04:06:38;101483.84;;;2.49;90.17
65997;BME280;52765;52.258;21.052;2023-02-11T04:09:04;101473.41;;;2.44;89.51
65997;BME280;52765;52.258;21.052;2023-02-11T04:11:29;101459.88;;;2.31;90.27
65997;BME280;52765;52.258;21.052;2023-02-11T04:13:55;101472.38;;;2.29;91.28
65997;BME280;52765;52.258;21.052;2023-02-11T04:16:20;101439.84;;;2.24;90.32
65997;BME280;52765;52.258;21.052;2023-02-11T04:18:46;101452.38;;;2.22;90.65
65997;BME280;52765;52.258;21.052;2023-02-11T04:21:11;101446.56;;;2.14;90.81
65997;BME280;52765;52.258;21.052;2023-02-11T04:23:37;101453.38;;;2.19;89.45
65997;BME280;52765;52.258;21.052;2023-02-11T04:26:02;101437.75;;;2.13;90.42
65997;BME280;52765;52.258;21.052;2023-02-11T04:28:30;101434.03;;;2.16;91.12
65997;BME280;52765;52.258;21.052;2023-02-11T04:30:57;101436.63;;;2.17;89.76
65997;BME280;52765;52.258;21.052;2023-02-11T04:33:23;101434.34;;;2.10;90.75
65997;BME280;52765;52.258;21.052;2023-02-11T04:35:49;101429.97;;;2.09;90.51
65997;BME280;52765;52.258;21.052;2023-02-11T04:38:15;101432.88;;;2.04;90.34
65997;BME280;52765;52.258;21.052;2023-02-11T04:40:41;101421.22;;;2.07;89.99
65997;BME280;52765;52.258;21.052;2023-02-11T04:43:07;101425.38;;;2.12;90.23
65997;BME280;52765;52.258;21.052;2023-02-11T04:45:33;101397.38;;;2.05;89.41
65997;BME280;52765;52.258;21.052;2023-02-11T04:48:01;101378.78;;;2.05;90.63
65997;BME280;52765;52.258;21.052;2023-02-11T04:50:27;101375.94;;;2.08;89.97
65997;BME280;52765;52.258;21.052;2023-02-11T04:52:53;101388.03;;;1.96;90.27
65997;BME280;52765;52.258;21.052;2023-02-11T04:55:19;101371.94;;;1.99;90.13
65997;BME280;52765;52.258;21.052;2023-02-11T04:57:45;101354.53;;;1.94;90.53
65997;BME280;52765;52.258;21.052;2023-02-11T05:00:11;101355.38;;;1.94;90.13
65997;BME280;52765;52.258;21.052;2023-02-11T05:02:37;101360.47;;;1.99;89.32
65997;BME280;52765;52.258;21.052;2023-02-11T05:05:03;101360.53;;;1.97;89.93
65997;BME280;52765;52.258;21.052;2023-02-11T05:07:29;101373.59;;;2.02;89.67
65997;BME280;52765;52.258;21.052;2023-02-11T05:09:55;101368.06;;;2.07;88.72
65997;BME280;52765;52.258;21.052;2023-02-11T05:12:20;101354.84;;;2.05;88.72
65997;BME280;52765;52.258;21.052;2023-02-11T05:14:46;101338.84;;;2.07;88.72
65997;BME280;52765;52.258;21.052;2023-02-11T05:17:11;101322.88;;;2.07;89.00
65997;BME280;52765;52.258;21.052;2023-02-11T05:19:37;101330.69;;;2.10;88.40
65997;BME280;52765;52.258;21.052;2023-02-11T05:22:02;101314.56;;;2.13;88.58
65997;BME280;52765;52.258;21.052;2023-02-11T05:24:29;101308.41;;;2.12;88.25
65997;BME280;52765;52.258;21.052;2023-02-11T05:26:55;101307.78;;;2.07;88.57
65997;BME280;52765;52.258;21.052;2023-02-11T05:29:20;101306.75;;;2.10;87.99
65997;BME280;52765;52.258;21.052;2023-02-11T05:31:46;101306.81;;;2.08;88.41
65997;BME280;52765;52.258;21.052;2023-02-11T05:34:11;101296.47;;;2.03;88.18
65997;BME280;52765;52.258;21.052;2023-02-11T05:36:36;101321.31;;;2.02;88.77
65997;BME280;52765;52.258;21.052;2023-02-11T05:39:02;101314.19;;;2.03;88.27
65997;BME280;52765;52.258;21.052;2023-02-11T05:41:27;101321.38;;;2.01;88.84
65997;BME280;52765;52.258;21.052;2023-02-11T05:43:53;101316.28;;;1.96;88.99
65997;BME280;52765;52.258;21.052;2023-02-11T05:46:18;101316.91;;;2.01;88.97
65997;BME280;52765;52.258;21.052;2023-02-11T05:48:44;101327.66;;;2.00;89.05
65997;BME280;52765;52.258;21.052;2023-02-11T05:51:09;101299.13;;;2.03;88.82
65997;BME280;52765;52.258;21.052;2023-02-11T05:53:35;101303.41;;;2.06;89.12
65997;BME280;52765;52.258;21.052;2023-02-11T05:56:01;101307.63;;;2.10;88.13
65997;BME280;52765;52.258;21.052;2023-02-11T05:58:27;101300.28;;;2.15;88.26
65997;BME280;52765;52.258;21.052;2023-02-11T06:00:52;101293.22;;;2.14;88.13
65997;BME280;52765;52.258;21.052;2023-02-11T06:03:18;101289.03;;;2.10;88.63
65997;BME280;52765;52.258;21.052;2023-02-11T06:05:44;101297.63;;;2.15;88.29
65997;BME280;52765;52.258;21.052;2023-02-11T06:08:10;101286.09;;;2.15;87.54
65997;BME280;52765;52.258;21.052;2023-02-11T06:10:36;101275.47;;;2.15;87.96
65997;BME280;52765;52.258;21.052;2023-02-11T06:13:01;101282.66;;;2.13;87.21
65997;BME280;52765;52.258;21.052;2023-02-11T06:15:27;101282.44;;;2.17;87.82
65997;BME280;52765;52.258;21.052;2023-02-11T06:17:52;101277.34;;;2.13;88.26
65997;BME280;52765;52.258;21.052;2023-02-11T06:20:18;101273.69;;;2.15;88.05
65997;BME280;52765;52.258;21.052;2023-02-11T06:22:43;101277.19;;;2.16;87.63
65997;BME280;52765;52.258;21.052;2023-02-11T06:25:09;101273.53;;;2.18;87.84
65997;BME280;52765;52.258;21.052;2023-02-11T06:27:36;101275.09;;;2.22;87.84
65997;BME280;52765;52.258;21.052;2023-02-11T06:30:02;101274.16;;;2.24;87.53
65997;BME280;52765;52.258;21.052;2023-02-11T06:32:28;101258.28;;;2.22;88.17
65997;BME280;52765;52.258;21.052;2023-02-11T06:34:54;101263.53;;;2.24;87.86
65997;BME280;52765;52.258;21.052;2023-02-11T06:37:19;101237.78;;;2.24;88.56
65997;BME280;52765;52.258;21.052;2023-02-11T06:39:45;101244.81;;;2.25;87.35
65997;BME280;52765;52.258;21.052;2023-02-11T06:42:10;101240.19;;;2.29;87.71
65997;BME280;52765;52.258;21.052;2023-02-11T06:44:36;101247.66;;;2.22;87.65
65997;BME280;52765;52.258;21.052;2023-02-11T06:47:01;101228.06;;;2.23;88.06
65997;BME280;52765;52.258;21.052;2023-02-11T06:49:27;101245.84;;;2.22;87.94
65997;BME280;52765;52.258;21.052;2023-02-11T06:51:52;101247.50;;;2.25;88.24
65997;BME280;52765;52.258;21.052;2023-02-11T06:54:18;101220.09;;;2.23;88.58
65997;BME280;52765;52.258;21.052;2023-02-11T06:56:43;101254.22;;;2.15;88.88
65997;BME280;52765;52.258;21.052;2023-02-11T06:59:14;101226.31;;;2.24;89.17
65997;BME280;52765;52.258;21.052;2023-02-11T07:01:40;101208.22;;;2.30;89.10
65997;BME280;52765;52.258;21.052;2023-02-11T07:04:06;101199.47;;;2.28;88.58
65997;BME280;52765;52.258;21.052;2023-02-11T07:06:32;101206.28;;;2.16;89.72
65997;BME280;52765;52.258;21.052;2023-02-11T07:08:58;101218.25;;;2.08;90.02
65997;BME280;52765;52.258;21.052;2023-02-11T07:11:25;101215.59;;;2.08;90.47
65997;BME280;52765;52.258;21.052;2023-02-11T07:13:53;101221.78;;;2.08;91.17
65997;BME280;52765;52.258;21.052;2023-02-11T07:16:19;101240.47;;;2.07;90.96
65997;BME280;52765;52.258;21.052;2023-02-11T07:18:45;101231.25;;;1.96;92.29
65997;BME280;52765;52.258;21.052;2023-02-11T07:21:13;101212.84;;;1.93;92.60
65997;BME280;52765;52.258;21.052;2023-02-11T07:23:39;101217.97;;;1.96;93.10
65997;BME280;52765;52.258;21.052;2023-02-11T07:26:13;101223.47;;;1.93;93.32
65997;BME280;52765;52.258;21.052;2023-02-11T07:28:40;101228.13;;;1.88;95.01
65997;BME280;52765;52.258;21.052;2023-02-11T07:31:23;101227.06;;;1.92;94.93
65997;BME280;52765;52.258;21.052;2023-02-11T07:33:51;101211.03;;;1.76;95.92
65997;BME280;52765;52.258;21.052;2023-02-11T07:36:17;101225.47;;;1.88;96.82
65997;BME280;52765;52.258;21.052;2023-02-11T07:38:43;101223.31;;;1.79;96.45
65997;BME280;52765;52.258;21.052;2023-02-11T07:41:11;101212.59;;;1.80;97.56
65997;BME280;52765;52.258;21.052;2023-02-11T07:43:37;101214.78;;;1.72;98.69
65997;BME280;52765;52.258;21.052;2023-02-11T07:46:05;101170.66;;;1.52;100.00
65997;BME280;52765;52.258;21.052;2023-02-11T07:48:31;101201.59;;;1.71;99.71
65997;BME280;52765;52.258;21.052;2023-02-11T07:53:42;101210.34;;;1.73;100.00
65997;BME280;52765;52.258;21.052;2023-02-11T07:56:09;101193.16;;;1.80;100.00
65997;BME280;52765;52.258;21.052;2023-02-11T07:58:35;101200.16;;;1.81;100.00
65997;BME280;52765;52.258;21.052;2023-02-11T08:01:06;101204.06;;;1.91;100.00
65997;BME280;52765;52.258;21.052;2023-02-11T08:03:33;101189.84;;;1.92;100.00
65997;BME280;52765;52.258;21.052;2023-02-11T08:06:03;101187.41;;;1.88;100.00
65997;BME280;52765;52.258;21.052;2023-02-11T08:08:29;101191.13;;;1.85;100.00
65997;BME280;52765;52.258;21.052;2023-02-11T08:10:54;101205.78;;;1.75;100.00
65997;BME280;52765;52.258;21.052;2023-02-11T08:13:20;101184.81;;;1.70;100.00
65997;BME280;52765;52.258;21.052;2023-02-11T08:15:45;101189.22;;;1.70;100.00
65997;BME280;52765;52.258;21.052;2023-02-11T08:18:11;101191.44;;;1.79;100.00
65997;BME280;52765;52.258;21.052;2023-02-11T08:20:36;101166.03;;;1.73;100.00
65997;BME280;52765;52.258;21.052;2023-02-11T08:23:02;101173.91;;;1.75;100.00
65997;BME280;52765;52.258;21.052;2023-02-11T08:25:29;101173.53;;;1.82;100.00
65997;BME280;52765;52.258;21.052;2023-02-11T08:27:54;101173.28;;;1.87;100.00
65997;BME280;52765;52.258;21.052;2023-02-11T08:30:20;101157.66;;;1.81;100.00
65997;BME280;52765;52.258;21.052;2023-02-11T08:32:45;101165.31;;;1.87;100.00
65997;BME280;52765;52.258;21.052;2023-02-11T08:35:11;101155.84;;;1.81;100.00
65997;BME280;52765;52.258;21.052;2023-02-11T08:37:37;101161.50;;;1.75;100.00
65997;BME280;52765;52.258;21.052;2023-02-11T08:40:03;101163.28;;;1.75;100.00
65997;BME280;52765;52.258;21.052;2023-02-11T08:42:28;101151.44;;;1.64;100.00
65997;BME280;52765;52.258;21.052;2023-02-11T08:44:54;101156.91;;;1.61;100.00
65997;BME280;52765;52.258;21.052;2023-02-11T08:47:19;101159.63;;;1.60;100.00
65997;BME280;52765;52.258;21.052;2023-02-11T08:49:45;101135.84;;;1.58;100.00
65997;BME280;52765;52.258;21.052;2023-02-11T08:52:10;101122.66;;;1.73;100.00
65997;BME280;52765;52.258;21.052;2023-02-11T08:54:36;101139.56;;;1.72;100.00
65997;BME280;52765;52.258;21.052;2023-02-11T08:57:01;101107.78;;;1.70;100.00
65997;BME280;52765;52.258;21.052;2023-02-11T08:59:27;101110.59;;;1.83;100.00
65997;BME280;52765;52.258;21.052;2023-02-11T09:01:53;101099.59;;;1.73;100.00
65997;BME280;52765;52.258;21.052;2023-02-11T09:04:18;101111.31;;;1.87;100.00
65997;BME280;52765;52.258;21.052;2023-02-11T09:06:44;101111.66;;;1.80;100.00
65997;BME280;52765;52.258;21.052;2023-02-11T09:09:12;101096.00;;;1.92;100.00
65997;BME280;52765;52.258;21.052;2023-02-11T09:11:39;101086.53;;;1.86;100.00
65997;BME280;52765;52.258;21.052;2023-02-11T09:14:06;101080.13;;;1.90;100.00
65997;BME280;52765;52.258;21.052;2023-02-11T09:16:34;101075.25;;;1.98;100.00
65997;BME280;52765;52.258;21.052;2023-02-11T09:19:04;101088.03;;;1.92;100.00
65997;BME280;52765;52.258;21.052;2023-02-11T09:21:30;101074.44;;;1.80;100.00
65997;BME280;52765;52.258;21.052;2023-02-11T09:23:56;101091.59;;;1.91;100.00
65997;BME280;52765;52.258;21.052;2023-02-11T09:26:26;101093.56;;;1.87;100.00
65997;BME280;52765;52.258;21.052;2023-02-11T09:28:52;101102.91;;;1.94;100.00
65997;BME280;52765;52.258;21.052;2023-02-11T09:31:20;101098.47;;;1.95;100.00
65997;BME280;52765;52.258;21.052;2023-02-11T09:33:48;101089.63;;;1.94;100.00
65997;BME280;52765;52.258;21.052;2023-02-11T09:36:16;101094.25;;;1.91;100.00
65997;BME280;52765;52.258;21.052;2023-02-11T09:38:43;101092.53;;;1.90;100.00
65997;BME280;52765;52.258;21.052;2023-02-11T09:43:52;101127.34;;;1.85;100.00
65997;BME280;52765;52.258;21.052;2023-02-11T09:46:20;101130.84;;;1.85;100.00
65997;BME280;52765;52.258;21.052;2023-02-11T09:48:48;101131.69;;;1.86;100.00
65997;BME280;52765;52.258;21.052;2023-02-11T09:54:12;101124.19;;;1.94;100.00
65997;BME280;52765;52.258;21.052;2023-02-11T09:56:39;101128.28;;;1.84;100.00
65997;BME280;52765;52.258;21.052;2023-02-11T09:59:09;101101.38;;;1.90;100.00
65997;BME280;52765;52.258;21.052;2023-02-11T10:01:46;101073.69;;;1.94;100.00
65997;BME280;52765;52.258;21.052;2023-02-11T10:10:12;101089.56;;;1.96;100.00
65997;BME280;52765;52.258;21.052;2023-02-11T10:15:21;101083.47;;;1.94;100.00
65997;BME280;52765;52.258;21.052;2023-02-11T10:17:56;101096.00;;;1.92;100.00
65997;BME280;52765;52.258;21.052;2023-02-11T10:23:23;101048.09;;;1.93;100.00
65997;BME280;52765;52.258;21.052;2023-02-11T10:25:54;101052.69;;;1.90;100.00
65997;BME280;52765;52.258;21.052;2023-02-11T10:28:26;101032.72;;;1.82;100.00
65997;BME280;52765;52.258;21.052;2023-02-11T10:30:57;101037.94;;;1.84;100.00
65997;BME280;52765;52.258;21.052;2023-02-11T10:36:01;101022.00;;;1.84;100.00
65997;BME280;52765;52.258;21.052;2023-02-11T10:38:27;101032.63;;;1.84;100.00
65997;BME280;52765;52.258;21.052;2023-02-11T10:40:52;101027.31;;;1.84;100.00
65997;BME280;52765;52.258;21.052;2023-02-11T10:43:21;101011.03;;;1.90;100.00
65997;BME280;52765;52.258;21.052;2023-02-11T10:45:53;101012.41;;;1.97;100.00
65997;BME280;52765;52.258;21.052;2023-02-11T10:53:37;100989.25;;;1.99;100.00
65997;BME280;52765;52.258;21.052;2023-02-11T10:56:03;100996.91;;;2.06;100.00
65997;BME280;52765;52.258;21.052;2023-02-11T10:58:43;100990.91;;;2.02;100.00
65997;BME280;52765;52.258;21.052;2023-02-11T11:01:10;100985.84;;;1.97;100.00
65997;BME280;52765;52.258;21.052;2023-02-11T11:03:38;100997.16;;;2.01;100.00
65997;BME280;52765;52.258;21.052;2023-02-11T11:06:10;100992.59;;;2.03;100.00
65997;BME280;52765;52.258;21.052;2023-02-11T11:08:46;100980.00;;;1.91;100.00
65997;BME280;52765;52.258;21.052;2023-02-11T11:11:14;100980.84;;;1.91;100.00
65997;BME280;52765;52.258;21.052;2023-02-11T11:13:54;100993.03;;;1.95;100.00
65997;BME280;52765;52.258;21.052;2023-02-11T11:16:29;101005.28;;;1.98;100.00
65997;BME280;52765;52.258;21.052;2023-02-11T11:23:59;101018.56;;;1.98;100.00
65997;BME280;52765;52.258;21.052;2023-02-11T11:26:38;101022.28;;;1.95;100.00
65997;BME280;52765;52.258;21.052;2023-02-11T11:29:12;101024.84;;;1.97;100.00
65997;BME280;52765;52.258;21.052;2023-02-11T11:31:56;101009.00;;;1.95;100.00
65997;BME280;52765;52.258;21.052;2023-02-11T11:34:37;101025.84;;;1.94;100.00
65997;BME280;52765;52.258;21.052;2023-02-11T11:37:18;101011.56;;;1.97;100.00
65997;BME280;52765;52.258;21.052;2023-02-11T11:39:53;101009.25;;;2.07;100.00
65997;BME280;52765;52.258;21.052;2023-02-11T11:42:27;101005.72;;;2.06;100.00
65997;BME280;52765;52.258;21.052;2023-02-11T11:45:00;100988.00;;;2.07;100.00
65997;BME280;52765;52.258;21.052;2023-02-11T11:52:54;100965.00;;;2.21;100.00
65997;BME280;52765;52.258;21.052;2023-02-11T11:55:26;100957.09;;;2.20;100.00
65997;BME280;52765;52.258;21.052;2023-02-11T11:57:56;100968.66;;;2.19;100.00
65997;BME280;52765;52.258;21.052;2023-02-11T12:06:53;100973.72;;;2.24;100.00
65997;BME280;52765;52.258;21.052;2023-02-11T12:17:59;100993.34;;;2.37;100.00
65997;BME280;52765;52.258;21.052;2023-02-11T12:31:55;100955.88;;;2.26;100.00
65997;BME280;52765;52.258;21.052;2023-02-11T12:37:40;100957.72;;;2.39;100.00
65997;BME280;52765;52.258;21.052;2023-02-11T12:43:24;100962.97;;;2.41;100.00
65997;BME280;52765;52.258;21.052;2023-02-11T12:48:42;100932.78;;;2.42;100.00
65997;BME280;52765;52.258;21.052;2023-02-11T12:59:19;100935.75;;;2.52;100.00
65997;BME280;52765;52.258;21.052;2023-02-11T13:01:51;100935.19;;;2.61;100.00
65997;BME280;52765;52.258;21.052;2023-02-11T13:04:24;100957.13;;;2.65;100.00
65997;BME280;52765;52.258;21.052;2023-02-11T13:06:55;100953.91;;;2.59;100.00
65997;BME280;52765;52.258;21.052;2023-02-11T13:09:25;100961.69;;;2.63;100.00
65997;BME280;52765;52.258;21.052;2023-02-11T13:11:56;100956.22;;;2.66;100.00
65997;BME280;52765;52.258;21.052;2023-02-11T13:14:24;100934.94;;;2.66;100.00
65997;BME280;52765;52.258;21.052;2023-02-11T13:16:52;100934.16;;;2.64;100.00
65997;BME280;52765;52.258;21.052;2023-02-11T13:19:36;100968.28;;;2.71;100.00
65997;BME280;52765;52.258;21.052;2023-02-11T13:30:17;100961.00;;;2.75;100.00
65997;BME280;52765;52.258;21.052;2023-02-11T13:35:31;100960.44;;;2.84;100.00
65997;BME280;52765;52.258;21.052;2023-02-11T13:38:21;100954.03;;;2.72;100.00
65997;BME280;52765;52.258;21.052;2023-02-11T13:41:27;100949.19;;;2.79;100.00
65997;BME280;52765;52.258;21.052;2023-02-11T13:44:02;100939.72;;;2.75;100.00
65997;BME280;52765;52.258;21.052;2023-02-11T13:49:19;100946.44;;;2.81;100.00
65997;BME280;52765;52.258;21.052;2023-02-11T13:51:48;100936.34;;;2.71;100.00
65997;BME280;52765;52.258;21.052;2023-02-11T13:54:29;100940.47;;;2.77;100.00
65997;BME280;52765;52.258;21.052;2023-02-11T13:57:35;100939.31;;;2.81;100.00
65997;BME280;52765;52.258;21.052;2023-02-11T14:11:51;100965.22;;;2.93;100.00
65997;BME280;52765;52.258;21.052;2023-02-11T14:14:27;100951.50;;;2.85;100.00
65997;BME280;52765;52.258;21.052;2023-02-11T14:22:21;100953.31;;;2.99;100.00
65997;BME280;52765;52.258;21.052;2023-02-11T14:25:02;100957.53;;;3.03;100.00
65997;BME280;52765;52.258;21.052;2023-02-11T14:27:44;100945.06;;;3.04;100.00
65997;BME280;52765;52.258;21.052;2023-02-11T14:30:54;100949.53;;;3.03;100.00
65997;BME280;52765;52.258;21.052;2023-02-11T14:33:50;100955.03;;;3.00;100.00
65997;BME280;52765;52.258;21.052;2023-02-11T14:36:51;100971.41;;;3.08;100.00
65997;BME280;52765;52.258;21.052;2023-02-11T14:39:52;100966.84;;;3.10;100.00
65997;BME280;52765;52.258;21.052;2023-02-11T14:42:19;100964.53;;;3.04;100.00
65997;BME280;52765;52.258;21.052;2023-02-11T14:44:49;100972.81;;;3.14;100.00
65997;BME280;52765;52.258;21.052;2023-02-11T14:47:48;100972.47;;;3.20;100.00
65997;BME280;52765;52.258;21.052;2023-02-11T14:50:27;100991.28;;;3.17;100.00
65997;BME280;52765;52.258;21.052;2023-02-11T14:52:59;100976.34;;;3.14;100.00
65997;BME280;52765;52.258;21.052;2023-02-11T14:55:30;100990.22;;;3.20;100.00
65997;BME280;52765;52.258;21.052;2023-02-11T14:58:20;100982.72;;;3.26;100.00
65997;BME280;52765;52.258;21.052;2023-02-11T15:03:37;100976.63;;;3.24;100.00
65997;BME280;52765;52.258;21.052;2023-02-11T15:08:34;100977.03;;;3.18;100.00
65997;BME280;52765;52.258;21.052;2023-02-11T15:11:02;100989.94;;;3.24;100.00
65997;BME280;52765;52.258;21.052;2023-02-11T15:13:32;100998.91;;;3.23;100.00
65997;BME280;52765;52.258;21.052;2023-02-11T15:16:05;101003.47;;;3.36;100.00
65997;BME280;52765;52.258;21.052;2023-02-11T15:18:41;100976.53;;;3.26;100.00
65997;BME280;52765;52.258;21.052;2023-02-11T15:21:09;100991.50;;;3.28;100.00